Time;durP1;ratioP1;P1;durP2;ratioP2;P2;SDS_P1;SDS_P2;PMS_P1;PMS_P2;Temp;Humidity;BMP_temperature;BMP_pressure;BME280_temperature;BME280_humidity;BME280_pressure;Samples;Min_cycle;Max_cycle;Signal;HPM_P1;HPM_P2
2022/11/22 00:04:29;;;;;;;27.92;14.18;;;;;;;0.14;73.67;99079.31;30496499;28;96660;-65
2022/11/22 00:19:30;;;;;;;28.95;14.43;;;;;;;0.18;73.90;99072.03;30493096;28;96695;-65
2022/11/22 00:34:30;;;;;;;21.02;9.40;;;;;;;0.16;74.06;99045.97;30493759;28;97256;-66
2022/11/22 00:49:30;;;;;;;23.90;10.50;;;;;;;0.05;74.35;99021.66;30493030;28;96648;-65
2022/11/22 01:04:31;;;;;;;22.75;10.55;;;;;;;0.03;74.75;99018.31;30491450;28;96673;-65
2022/11/22 01:19:31;;;;;;;16.02;10.23;;;;;;;0.02;75.19;99035.81;30489565;28;97397;-65
2022/11/22 01:34:32;;;;;;;16.92;9.32;;;;;;;-0.20;75.30;99028.97;30507777;28;97444;-66
2022/11/22 01:49:46;;;;;;;17.05;7.18;;;;;;;-0.53;76.02;99015.97;30509505;28;97300;-65
2022/11/22 02:04:49;;;;;;;20.50;9.77;;;;;;;-0.52;76.86;98990.63;30507859;28;96872;-65
2022/11/22 02:19:50;;;;;;;23.20;10.55;;;;;;;-0.56;77.05;98991.84;30505868;28;97360;-65
2022/11/22 02:34:50;;;;;;;23.98;11.27;;;;;;;-0.59;77.42;98965.94;30503670;28;97354;-66
2022/11/22 02:49:54;;;;;;;21.35;9.95;;;;;;;-0.54;77.21;98955.94;30503572;28;96718;-66
2022/11/22 03:04:54;;;;;;;21.55;10.25;;;;;;;-0.50;77.50;98956.50;30502118;28;96661;-65
2022/11/22 03:19:55;;;;;;;24.23;12.13;;;;;;;-0.57;77.91;98958.81;30500032;28;97127;-64
2022/11/22 03:34:55;;;;;;;29.73;13.35;;;;;;;-0.63;77.97;98973.25;30499303;28;96698;-66
2022/11/22 03:49:55;;;;;;;30.05;13.73;;;;;;;-0.56;78.20;98955.22;30495862;28;97023;-65
2022/11/22 04:04:56;;;;;;;28.25;12.45;;;;;;;-0.65;78.30;98940.31;30494614;28;96959;-65
2022/11/22 04:35:17;;;;;;;20.02;9.85;;;;;;;-0.83;78.66;98925.22;30492291;28;97073;-66
2022/11/22 05:05:38;;;;;;;32.83;13.63;;;;;;;-0.80;79.49;98924.94;30514664;28;97132;-65
2022/11/22 05:20:38;;;;;;;67.55;13.50;;;;;;;-0.63;80.01;98917.47;30524270;28;97694;-64
2022/11/22 05:35:39;;;;;;;47.95;13.32;;;;;;;-0.58;80.09;98931.00;30524101;28;97204;-64
2022/11/22 05:50:39;;;;;;;41.15;14.40;;;;;;;-0.48;80.30;98944.94;30524897;28;96662;-64
2022/11/22 06:05:40;;;;;;;28.42;11.93;;;;;;;-0.39;80.54;98938.94;30523085;28;96731;-65
2022/11/22 06:20:40;;;;;;;33.72;11.82;;;;;;;-0.35;80.67;98950.78;30503847;28;97245;-65
2022/11/22 06:35:41;;;;;;;33.63;12.13;;;;;;;-0.32;80.71;98951.50;30501928;28;96683;-64
2022/11/22 06:50:41;;;;;;;19.27;10.30;;;;;;;-0.46;80.58;98995.38;30498328;28;96734;-64
2022/11/22 07:05:52;;;;;;;37.28;14.07;;;;;;;-0.48;81.17;99015.56;30498278;28;97400;-65
2022/11/22 07:20:58;;;;;;;33.03;15.60;;;;;;;-0.27;81.55;98978.13;30495931;28;97411;-66
2022/11/22 07:36:10;;;;;;;40.17;17.83;;;;;;;0.08;81.67;98966.38;30494866;28;97331;-65
2022/11/22 07:51:10;;;;;;;36.22;15.07;;;;;;;0.35;81.71;98971.00;30493361;28;96901;-65
2022/11/22 08:06:12;;;;;;;30.40;13.80;;;;;;;0.54;81.55;98948.44;30491664;28;97546;-68
2022/11/22 08:21:14;;;;;;;43.65;13.73;;;;;;;0.76;81.27;98944.72;30490138;28;96780;-65
2022/11/22 08:36:14;;;;;;;31.90;13.93;;;;;;;0.75;80.98;98962.25;30485425;28;96544;-67
2022/11/22 08:51:15;;;;;;;24.58;12.93;;;;;;;0.94;81.41;98966.63;30489078;28;96689;-66
2022/11/22 09:06:17;;;;;;;34.33;15.80;;;;;;;0.99;80.93;98988.03;30488945;28;96759;-65
2022/11/22 09:21:18;;;;;;;39.17;19.10;;;;;;;1.07;80.88;98992.59;30485127;28;96740;-66
2022/11/22 09:36:21;;;;;;;46.65;18.42;;;;;;;1.09;80.71;98958.34;30486465;28;97347;-63
2022/11/22 09:51:32;;;;;;;41.85;19.45;;;;;;;1.12;81.05;98963.31;30496256;28;96758;-65
2022/11/22 10:06:40;;;;;;;34.35;16.83;;;;;;;1.30;80.27;98971.28;30502076;28;96737;-65
2022/11/22 10:21:42;;;;;;;29.98;14.02;;;;;;;1.37;80.00;98955.81;30501731;28;97312;-64
2022/11/22 10:37:01;;;;;;;36.85;16.90;;;;;;;1.47;80.58;98967.13;30500137;28;96736;-64
2022/11/22 10:52:27;;;;;;;41.85;19.38;;;;;;;1.52;80.46;98957.03;30500410;28;97507;-65
2022/11/22 11:07:28;;;;;;;37.90;20.27;;;;;;;1.83;80.38;98954.16;30498396;28;96729;-65
2022/11/22 11:22:32;;;;;;;34.40;17.33;;;;;;;2.01;80.09;98952.44;30497765;28;97316;-65
2022/11/22 11:37:36;;;;;;;41.93;20.93;;;;;;;2.59;79.10;98933.84;30496829;28;96775;-66
2022/11/22 11:52:36;;;;;;;46.30;21.27;;;;;;;2.77;78.52;98939.09;30495566;28;97495;-66
2022/11/22 12:07:38;;;;;;;44.55;22.65;;;;;;;2.73;78.00;98917.50;30491861;28;96613;-65
2022/11/22 12:23:01;;;;;;;45.85;23.45;;;;;;;2.90;78.44;98905.34;30491015;28;97417;-65
2022/11/22 12:38:10;;;;;;;51.80;26.00;;;;;;;3.00;78.33;98903.44;30483965;28;97153;-68
2022/11/22 12:53:27;;;;;;;40.83;21.05;;;;;;;2.98;77.53;98900.16;30476390;28;97192;-63
2022/11/22 13:08:32;;;;;;;41.55;20.50;;;;;;;2.98;77.69;98880.88;30478491;28;97117;-64
2022/11/22 13:23:49;;;;;;;38.15;20.85;;;;;;;3.05;77.48;98887.22;30486185;28;96698;-63
2022/11/22 13:39:02;;;;;;;44.38;21.80;;;;;;;3.12;77.46;98879.53;30497458;28;97462;-64
2022/11/22 13:54:31;;;;;;;42.72;20.55;;;;;;;3.09;77.38;98874.53;30495795;28;96732;-64
2022/11/22 14:09:42;;;;;;;40.08;21.75;;;;;;;3.10;77.59;98863.03;30492492;28;96845;-64
2022/11/22 14:24:51;;;;;;;41.20;21.77;;;;;;;3.10;77.19;98884.91;30501861;28;96673;-64
2022/11/22 14:40:32;;;;;;;39.72;21.67;;;;;;;3.14;77.77;98878.34;30499326;28;96630;-63
2022/11/22 14:55:33;;;;;;;42.67;22.30;;;;;;;3.17;77.22;98877.22;30496579;28;97227;-59
2022/11/22 15:11:03;;;;;;;36.38;19.70;;;;;;;3.04;77.31;98891.63;30494555;28;96674;-62
2022/11/22 15:26:05;;;;;;;40.67;23.23;;;;;;;2.98;77.11;98892.25;30477827;28;97415;-62
2022/11/22 15:41:05;;;;;;;39.25;22.33;;;;;;;3.10;77.33;98894.63;30494185;28;97494;-60
2022/11/22 15:56:37;;;;;;;41.58;22.42;;;;;;;3.15;76.93;98906.34;30485939;28;96739;-62
2022/11/22 16:11:38;;;;;;;41.40;24.15;;;;;;;3.09;77.01;98922.75;30479478;28;97680;-63
2022/11/22 16:26:39;;;;;;;46.47;24.17;;;;;;;3.01;76.79;98923.50;30479743;28;96916;-63
2022/11/22 16:41:39;;;;;;;42.65;23.20;;;;;;;3.00;77.42;98921.84;30479693;28;97065;-62
2022/11/22 16:56:42;;;;;;;39.97;24.08;;;;;;;3.04;77.24;98922.38;30477068;28;98406;-62
2022/11/22 17:11:43;;;;;;;44.65;24.77;;;;;;;3.03;77.18;98934.72;30474346;28;97246;-62
2022/11/22 17:26:43;;;;;;;53.80;27.13;;;;;;;3.15;77.47;98951.06;30471881;28;97164;-63
2022/11/22 17:41:47;;;;;;;50.70;26.52;;;;;;;3.08;77.01;98946.59;30473184;28;98605;-60
2022/11/22 17:56:48;;;;;;;49.60;28.63;;;;;;;3.13;76.88;98955.69;30471488;28;97037;-63
2022/11/22 18:11:48;;;;;;;52.63;28.20;;;;;;;3.16;76.95;98986.13;30483724;28;97264;-62
2022/11/22 18:26:49;;;;;;;62.50;29.40;;;;;;;3.15;76.97;98998.44;30490557;28;97040;-61
2022/11/22 18:41:49;;;;;;;59.33;30.55;;;;;;;3.10;77.03;99018.31;30488589;28;97019;-62
2022/11/22 18:56:50;;;;;;;63.47;29.38;;;;;;;3.02;76.81;99012.00;30490097;28;97134;-62
2022/11/22 19:11:55;;;;;;;57.63;26.77;;;;;;;2.92;76.38;99005.97;30494344;28;96815;-64
2022/11/22 19:26:55;;;;;;;58.70;28.33;;;;;;;2.64;77.14;99007.84;30496070;28;97256;-62
2022/11/22 19:41:56;;;;;;;70.35;35.33;;;;;;;2.51;76.67;99009.00;30495954;28;97400;-61
2022/11/22 19:56:56;;;;;;;72.90;35.30;;;;;;;2.23;76.93;99021.34;30494098;28;96991;-61
2022/11/22 20:11:57;;;;;;;63.92;31.13;;;;;;;2.16;77.48;99020.25;30492725;28;98077;-63
2022/11/22 20:26:57;;;;;;;61.45;32.85;;;;;;;2.06;77.56;99040.50;30491590;28;96757;-70
2022/11/22 20:41:58;;;;;;;63.78;31.63;;;;;;;2.02;77.89;99051.28;30490667;28;97292;-66
2022/11/22 20:56:58;;;;;;;69.55;32.08;;;;;;;1.89;77.83;99053.41;30487894;28;96978;-63
2022/11/22 21:11:58;;;;;;;76.78;37.58;;;;;;;1.86;77.42;99056.31;30487670;28;96932;-63
2022/11/22 21:26:59;;;;;;;85.82;40.78;;;;;;;1.76;77.74;99064.19;30485795;28;96643;-65
2022/11/22 21:41:59;;;;;;;78.18;36.67;;;;;;;1.71;78.20;99062.97;30490554;28;96963;-64
2022/11/22 21:57:00;;;;;;;73.03;36.00;;;;;;;1.56;78.54;99067.81;30505556;28;97015;-65
2022/11/22 22:12:00;;;;;;;68.53;35.47;;;;;;;1.61;78.90;99073.47;30502900;28;97087;-64
2022/11/22 22:27:00;;;;;;;83.50;39.53;;;;;;;1.57;78.70;99070.28;30502198;28;96876;-67
2022/11/22 22:42:01;;;;;;;77.13;37.75;;;;;;;1.58;78.51;99073.78;30502743;28;96531;-65
2022/11/22 22:57:01;;;;;;;76.80;36.97;;;;;;;1.46;78.21;99079.19;30502751;28;96550;-64
2022/11/22 23:12:11;;;;;;;84.75;40.80;;;;;;;1.47;78.80;99086.06;30502509;28;97002;-64
2022/11/22 23:27:11;;;;;;;89.25;41.92;;;;;;;1.47;78.67;99103.63;30499637;28;97375;-64
2022/11/22 23:42:12;;;;;;;92.35;43.97;;;;;;;1.37;78.94;99084.41;30499338;28;96695;-64
2022/11/22 23:57:12;;;;;;;83.38;42.17;;;;;;;1.30;78.70;99084.97;30497985;28;96737;-64
